Blue Creek, Ohio
Current Conditions -  °F | °C
As of 7:35 PM on Friday 24 Oct 2014 (Local Time) from KFGX Reporting Station
Clear Clear  
Wind Chill: 54°   Ceiling: Unl
Heat Index: 54°   Visibility: 10mi
Dew Point: 40°   Wind: 5mph
Humidity: 59%   Direction: 250°WSW
Pressure: 30.07"   Gusts: NA
Location:  38.78°N, 83.33°W
Report Text: KFGX 242335Z AUTO 25004KT 10SM CLR 12/05 A3007 RMK AO2 T01240045
Loading
Personal Weather Stations






























Interactive Weather Map
Tropical Storm Tracking
New forecast layout! Learn more

10-Day Weather Forecast

Advertisements
Track Severe Weather on mobile